createdAt,value
2022-11-17T00:02:17.390Z,6.17
2022-11-17T00:04:44.775Z,5.20
2022-11-17T00:07:11.330Z,6.27
2022-11-17T00:09:37.958Z,6.40
2022-11-17T00:12:23.266Z,7.43
2022-11-17T00:14:50.677Z,5.83
2022-11-17T00:17:17.344Z,6.80
2022-11-17T00:20:02.563Z,6.83
2022-11-17T00:22:30.466Z,5.43
2022-11-17T00:24:57.162Z,5.53
2022-11-17T00:27:23.656Z,6.27
2022-11-17T00:29:50.171Z,4.77
2022-11-17T00:32:35.399Z,3.53
2022-11-17T00:35:01.974Z,3.50
2022-11-17T00:37:33.556Z,3.93
2022-11-17T00:40:01.165Z,3.77
2022-11-17T00:42:28.005Z,4.17
2022-11-17T00:44:54.538Z,4.17
2022-11-17T00:47:21.034Z,3.57
2022-11-17T00:49:47.561Z,4.60
2022-11-17T00:52:14.105Z,4.40
2022-11-17T00:54:40.734Z,5.17
2022-11-17T00:57:07.275Z,4.50
2022-11-17T00:59:33.756Z,4.33
2022-11-17T01:02:00.331Z,3.93
2022-11-17T01:04:26.975Z,4.00
2022-11-17T01:06:53.465Z,3.43
2022-11-17T01:09:20.872Z,4.30
2022-11-17T01:11:47.701Z,4.20
2022-11-17T01:14:17.211Z,4.17
2022-11-17T01:16:43.797Z,3.77
2022-11-17T01:19:10.881Z,3.80
2022-11-17T01:21:37.602Z,4.17
2022-11-17T01:24:04.255Z,4.23
2022-11-17T01:26:34.904Z,4.70
2022-11-17T01:29:03.054Z,4.37
2022-11-17T01:31:30.527Z,4.40
2022-11-17T01:33:57.186Z,4.07
2022-11-17T01:36:24.620Z,3.23
2022-11-17T01:38:51.128Z,3.50
2022-11-17T01:41:21.603Z,3.07
2022-11-17T01:43:49.070Z,2.97
2022-11-17T01:46:15.529Z,2.30
2022-11-17T01:48:42.457Z,2.70
2022-11-17T01:51:08.932Z,2.20
2022-11-17T01:53:35.836Z,2.40
2022-11-17T01:56:07.262Z,2.10
2022-11-17T01:58:38.074Z,1.87
2022-11-17T02:01:04.549Z,1.73
2022-11-17T02:03:32.980Z,1.70
2022-11-17T02:06:10.628Z,1.80
2022-11-17T02:08:37.668Z,1.43
2022-11-17T02:11:04.760Z,1.53
2022-11-17T02:13:31.238Z,1.90
2022-11-17T02:15:57.713Z,1.23
2022-11-17T02:18:24.251Z,1.50
2022-11-17T02:20:59.703Z,1.50
2022-11-17T02:23:35.658Z,1.53
2022-11-17T02:26:22.523Z,1.73
2022-11-17T02:28:54.852Z,1.70
2022-11-17T02:31:53.749Z,1.63
2022-11-17T02:34:27.187Z,1.20
2022-11-17T02:37:09.796Z,1.13
2022-11-17T02:39:45.492Z,1.20
2022-11-17T02:42:16.632Z,1.10
2022-11-17T02:44:51.049Z,1.20
2022-11-17T02:47:22.255Z,1.07
2022-11-17T02:49:53.821Z,0.97
2022-11-17T02:52:20.292Z,1.27
2022-11-17T02:54:47.143Z,0.87
2022-11-17T02:57:32.746Z,1.00
2022-11-17T02:59:59.399Z,1.00
2022-11-17T03:02:34.938Z,1.00
2022-11-17T03:05:01.475Z,1.00
2022-11-17T03:07:31.658Z,0.90
2022-11-17T03:10:07.242Z,1.30
2022-11-17T03:12:41.557Z,0.90
2022-11-17T03:15:24.888Z,1.00
2022-11-17T03:17:54.356Z,1.10
2022-11-17T03:20:44.212Z,1.00
2022-11-17T03:23:13.760Z,1.00
2022-11-17T03:25:41.175Z,1.10
2022-11-17T03:28:07.940Z,1.03
2022-11-17T03:30:37.471Z,1.10
2022-11-17T03:33:05.649Z,1.07
2022-11-17T03:35:32.838Z,1.00
2022-11-17T03:38:01.532Z,0.83
2022-11-17T03:40:28.426Z,0.87
2022-11-17T03:42:59.263Z,1.00
2022-11-17T03:45:26.819Z,1.00
2022-11-17T03:48:00.737Z,1.00
2022-11-17T03:50:33.203Z,1.00
2022-11-17T03:53:01.430Z,0.80
2022-11-17T03:55:29.597Z,1.13
2022-11-17T03:58:06.584Z,1.00
2022-11-17T04:00:33.812Z,0.97
2022-11-17T04:03:00.281Z,0.97
2022-11-17T04:05:26.785Z,0.90
2022-11-17T04:07:53.406Z,1.20
2022-11-17T04:10:21.018Z,0.97
2022-11-17T04:13:06.274Z,1.10
2022-11-17T04:15:51.564Z,1.20
2022-11-17T04:18:18.244Z,1.20
2022-11-17T04:20:44.783Z,1.17
2022-11-17T04:23:14.066Z,1.20
2022-11-17T04:25:59.810Z,1.10
2022-11-17T04:28:38.667Z,1.13
2022-11-17T04:31:08.212Z,1.13
2022-11-17T04:33:34.973Z,1.20
2022-11-17T04:36:01.719Z,1.50
2022-11-17T04:38:28.200Z,1.43
2022-11-17T04:41:18.956Z,1.27
2022-11-17T04:43:45.522Z,1.10
2022-11-17T04:46:11.930Z,1.30
2022-11-17T04:48:38.385Z,1.30
2022-11-17T04:51:05.142Z,2.00
2022-11-17T04:53:32.005Z,1.13
2022-11-17T04:56:01.823Z,1.20
2022-11-17T04:58:28.441Z,1.10
2022-11-17T05:00:54.897Z,1.40
2022-11-17T05:03:21.587Z,1.33
2022-11-17T05:05:48.188Z,1.43
2022-11-17T05:08:14.789Z,2.50
2022-11-17T05:11:00.136Z,2.70
2022-11-17T05:13:26.705Z,2.23
2022-11-17T05:16:13.960Z,1.87
2022-11-17T05:18:40.948Z,1.60
2022-11-17T05:21:08.153Z,2.70
2022-11-17T05:23:53.296Z,2.20
2022-11-17T05:26:20.074Z,2.00
2022-11-17T05:28:46.568Z,1.97
2022-11-17T05:31:13.007Z,2.07
2022-11-17T05:33:40.348Z,2.00
2022-11-17T05:36:07.186Z,2.97
2022-11-17T05:38:33.770Z,2.60
2022-11-17T05:41:00.354Z,2.10
2022-11-17T05:43:26.912Z,2.43
2022-11-17T05:45:53.555Z,2.97
2022-11-17T05:48:20.139Z,1.40
2022-11-17T05:50:46.600Z,1.40
2022-11-17T05:53:13.170Z,1.10
2022-11-17T05:55:39.679Z,1.00
2022-11-17T05:58:07.915Z,1.00
2022-11-17T06:00:34.566Z,1.30
2022-11-17T06:03:02.134Z,1.10
2022-11-17T06:05:28.620Z,1.00
2022-11-17T06:07:55.132Z,1.40
2022-11-17T06:10:21.672Z,1.00
2022-11-17T06:12:48.322Z,1.30
2022-11-17T06:15:14.938Z,1.70
2022-11-17T06:17:42.665Z,1.43
2022-11-17T06:20:12.900Z,1.60
2022-11-17T06:22:42.844Z,2.10
2022-11-17T06:25:12.265Z,2.30
2022-11-17T06:27:39.202Z,1.93
2022-11-17T06:30:06.168Z,2.03
2022-11-17T06:32:36.722Z,1.57
2022-11-17T06:35:05.609Z,1.80
2022-11-17T06:37:32.204Z,2.10
2022-11-17T06:39:58.745Z,2.13
2022-11-17T06:42:45.272Z,1.77
2022-11-17T06:45:11.888Z,2.27
2022-11-17T06:47:38.373Z,2.30
2022-11-17T06:50:05.146Z,2.30
2022-11-17T06:52:31.635Z,2.77
2022-11-17T06:54:58.223Z,2.00
2022-11-17T06:57:24.726Z,1.70
2022-11-17T06:59:52.686Z,1.57
2022-11-17T07:02:19.192Z,1.20
2022-11-17T07:04:45.712Z,1.13
2022-11-17T07:07:12.696Z,1.17
2022-11-17T07:09:39.195Z,1.10
2022-11-17T07:12:05.768Z,1.60
2022-11-17T07:14:32.296Z,1.07
2022-11-17T07:16:58.896Z,1.33
2022-11-17T07:19:25.462Z,1.37
2022-11-17T07:21:52.289Z,1.30
2022-11-17T07:24:18.900Z,1.30
2022-11-17T07:26:45.451Z,0.90
2022-11-17T07:29:11.967Z,0.93
2022-11-17T07:31:39.421Z,0.90
2022-11-17T07:34:06.095Z,1.20
2022-11-17T07:36:33.154Z,1.03
2022-11-17T07:38:59.668Z,0.87
2022-11-17T07:41:26.239Z,1.07
2022-11-17T07:43:52.805Z,0.93
2022-11-17T07:46:20.759Z,0.90
2022-11-17T07:48:47.329Z,0.80
2022-11-17T07:51:14.479Z,1.00
2022-11-17T07:53:40.985Z,1.00
2022-11-17T07:56:08.537Z,0.90
2022-11-17T07:58:35.605Z,1.10
2022-11-17T08:01:09.009Z,1.00
2022-11-17T08:03:35.871Z,0.80
2022-11-17T08:06:03.123Z,1.07
2022-11-17T08:08:29.815Z,0.93
2022-11-17T08:10:56.408Z,1.00
2022-11-17T08:13:24.408Z,1.10
2022-11-17T08:15:55.828Z,0.83
2022-11-17T08:18:22.467Z,1.10
2022-11-17T08:20:50.515Z,0.90
2022-11-17T08:23:17.455Z,0.90
2022-11-17T08:25:44.971Z,0.80
2022-11-17T08:28:11.634Z,0.70
2022-11-17T08:30:38.312Z,0.90
2022-11-17T08:33:05.053Z,1.23
2022-11-17T08:35:37.340Z,1.43
2022-11-17T08:38:04.513Z,0.90
2022-11-17T08:40:31.108Z,1.30
2022-11-17T08:43:01.227Z,1.30
2022-11-17T08:45:28.377Z,1.70
2022-11-17T08:47:55.961Z,2.60
2022-11-17T08:50:22.563Z,2.20
2022-11-17T08:52:49.494Z,1.70
2022-11-17T08:58:07.256Z,1.30
2022-11-17T09:03:32.396Z,1.00
2022-11-17T09:27:11.138Z,0.77
2022-11-17T09:32:35.408Z,0.90
2022-11-17T09:37:43.582Z,1.10
2022-11-17T09:40:24.673Z,1.47
2022-11-17T09:45:34.776Z,1.00
2022-11-17T09:48:49.506Z,0.57
2022-11-17T09:57:34.851Z,0.77
2022-11-17T10:00:33.521Z,0.80
2022-11-17T10:09:15.127Z,1.10
2022-11-17T10:24:11.759Z,1.90
2022-11-17T10:35:31.209Z,1.47
2022-11-17T10:58:22.956Z,0.90
2022-11-17T11:01:15.827Z,0.80
2022-11-17T11:03:51.839Z,0.80
2022-11-17T11:06:58.296Z,0.80
2022-11-17T11:12:29.643Z,0.90
2022-11-17T11:21:26.929Z,1.07
2022-11-17T11:24:14.155Z,0.90
2022-11-17T11:26:58.415Z,1.00
2022-11-17T11:29:58.644Z,1.13
2022-11-17T11:32:40.069Z,1.10
2022-11-17T11:35:18.529Z,1.20
2022-11-17T11:38:16.396Z,1.90
2022-11-17T11:40:59.865Z,2.10
2022-11-17T11:43:48.098Z,2.17
2022-11-17T11:46:17.534Z,2.27
2022-11-17T11:48:46.783Z,2.43
2022-11-17T11:51:21.505Z,2.20
2022-11-17T11:53:50.415Z,1.50
2022-11-17T11:59:42.979Z,1.70
2022-11-17T12:02:39.476Z,1.70
2022-11-17T12:05:40.612Z,1.20
2022-11-17T12:08:32.070Z,1.27
2022-11-17T12:11:33.223Z,1.10
2022-11-17T12:17:01.946Z,1.83
2022-11-17T12:19:47.725Z,2.20
2022-11-17T12:22:18.934Z,2.27
2022-11-17T12:24:51.068Z,1.83
2022-11-17T12:27:41.865Z,2.73
2022-11-17T12:30:34.661Z,3.07
2022-11-17T12:33:02.137Z,3.30
2022-11-17T12:35:29.008Z,3.37
2022-11-17T12:38:24.112Z,3.67
2022-11-17T12:41:00.944Z,3.17
2022-11-17T12:43:31.010Z,2.77
2022-11-17T12:46:24.738Z,3.90
2022-11-17T12:49:12.702Z,4.50
2022-11-17T12:51:53.059Z,5.30
2022-11-17T12:54:26.076Z,3.97
2022-11-17T12:57:04.803Z,3.57
2022-11-17T13:00:01.138Z,4.27
2022-11-17T13:02:32.711Z,4.20
2022-11-17T13:05:01.708Z,3.77
2022-11-17T13:07:31.071Z,3.07
2022-11-17T13:10:08.673Z,2.90
2022-11-17T13:13:00.674Z,2.80
2022-11-17T13:15:53.459Z,2.90
2022-11-17T13:18:34.924Z,3.90
2022-11-17T13:21:45.993Z,3.77
2022-11-17T13:24:39.812Z,3.97
2022-11-17T13:27:12.891Z,4.30
2022-11-17T13:29:49.082Z,4.30
2022-11-17T13:32:32.006Z,3.90
2022-11-17T13:35:07.818Z,3.70
2022-11-17T13:38:10.085Z,4.47
2022-11-17T13:40:44.382Z,3.77
2022-11-17T13:43:29.193Z,3.67
2022-11-17T13:45:55.925Z,3.10
2022-11-17T13:48:36.454Z,4.40
2022-11-17T13:51:36.709Z,4.00
2022-11-17T13:54:18.906Z,3.60
2022-11-17T13:57:07.322Z,3.77
2022-11-17T14:00:08.342Z,3.57
2022-11-17T14:02:55.855Z,3.90
2022-11-17T14:05:28.987Z,4.47
2022-11-17T14:07:58.823Z,3.40
2022-11-17T14:10:26.856Z,3.70
2022-11-17T14:13:18.343Z,4.23
2022-11-17T14:15:53.497Z,3.47
2022-11-17T14:18:55.133Z,4.03
2022-11-17T14:21:22.823Z,4.47
2022-11-17T14:24:01.140Z,4.30
2022-11-17T14:26:47.337Z,4.77
2022-11-17T14:29:15.498Z,5.00
2022-11-17T14:31:42.291Z,4.73
2022-11-17T14:34:33.200Z,5.10
2022-11-17T14:37:05.828Z,6.07
2022-11-17T14:39:38.405Z,5.20
2022-11-17T14:42:16.994Z,6.50
2022-11-17T14:44:46.222Z,6.50
2022-11-17T14:47:13.080Z,7.10
2022-11-17T14:49:42.143Z,5.97
2022-11-17T14:52:14.228Z,6.77
2022-11-17T14:54:42.950Z,6.17
2022-11-17T14:57:13.588Z,5.87
2022-11-17T14:59:43.705Z,6.73
2022-11-17T15:02:23.521Z,6.83
2022-11-17T15:04:53.940Z,5.57
2022-11-17T15:07:33.023Z,5.80
2022-11-17T15:10:06.865Z,6.53
2022-11-17T15:13:03.225Z,6.50
2022-11-17T15:15:32.858Z,6.70
2022-11-17T15:18:13.186Z,6.23
2022-11-17T15:20:40.135Z,6.50
2022-11-17T15:23:21.322Z,7.00
2022-11-17T15:25:53.884Z,6.83
2022-11-17T15:28:37.693Z,7.00
2022-11-17T15:31:21.033Z,6.47
2022-11-17T15:33:53.251Z,6.20
2022-11-17T15:36:27.049Z,6.30
2022-11-17T15:38:53.882Z,5.40
2022-11-17T15:41:29.901Z,4.80
2022-11-17T15:44:02.772Z,6.40
2022-11-17T15:46:31.329Z,5.70
2022-11-17T15:48:58.078Z,5.80
2022-11-17T15:51:36.140Z,6.47
2022-11-17T15:54:02.783Z,6.57
2022-11-17T15:56:40.302Z,7.60
2022-11-17T15:59:07.962Z,6.93
2022-11-17T16:01:38.040Z,5.90
2022-11-17T16:04:06.737Z,6.43
2022-11-17T16:06:56.158Z,6.23
2022-11-17T16:09:34.483Z,6.27
2022-11-17T16:12:01.215Z,6.90
2022-11-17T16:14:30.931Z,7.40
2022-11-17T16:17:02.064Z,7.53
2022-11-17T16:19:33.993Z,6.33
2022-11-17T16:22:09.195Z,6.57
2022-11-17T16:24:43.988Z,6.83
2022-11-17T16:29:52.253Z,6.70
2022-11-17T16:32:25.021Z,7.07
2022-11-17T16:34:51.921Z,6.80
2022-11-17T16:37:45.415Z,6.73
2022-11-17T16:40:14.905Z,6.47
2022-11-17T16:42:43.540Z,7.10
2022-11-17T16:45:31.154Z,6.90
2022-11-17T16:48:04.133Z,8.13
2022-11-17T16:50:33.275Z,7.07
2022-11-17T16:53:02.661Z,7.83
2022-11-17T16:55:31.896Z,8.80
2022-11-17T16:58:16.872Z,8.33
2022-11-17T17:00:50.525Z,6.27
2022-11-17T17:03:46.948Z,7.23
2022-11-17T17:06:21.811Z,8.33
2022-11-17T17:09:28.067Z,8.30
2022-11-17T17:12:00.531Z,6.77
2022-11-17T17:14:51.803Z,7.37
2022-11-17T17:17:22.714Z,7.03
2022-11-17T17:19:51.811Z,6.83
2022-11-17T17:22:33.922Z,6.53
2022-11-17T17:25:12.246Z,5.47
2022-11-17T17:30:35.398Z,5.80
2022-11-17T17:33:16.187Z,5.43
2022-11-17T17:35:44.887Z,5.53
2022-11-17T17:38:11.503Z,5.77
2022-11-17T17:40:38.872Z,5.50
2022-11-17T17:43:07.237Z,5.33
2022-11-17T17:45:54.780Z,5.17
2022-11-17T17:48:21.411Z,5.77
2022-11-17T17:53:30.339Z,5.77
2022-11-17T17:56:11.750Z,6.00
2022-11-17T17:58:41.545Z,5.03
2022-11-17T18:01:09.040Z,4.60
2022-11-17T18:03:35.794Z,5.20
2022-11-17T18:06:13.016Z,5.43
2022-11-17T18:08:45.373Z,5.97
2022-11-17T18:11:18.428Z,6.30
2022-11-17T18:13:45.602Z,7.93
2022-11-17T18:16:13.241Z,8.27
2022-11-17T18:18:42.187Z,9.20
2022-11-17T18:21:15.123Z,9.00
2022-11-17T18:23:46.536Z,8.73
2022-11-17T18:26:15.826Z,10.33
2022-11-17T18:28:42.739Z,10.67
2022-11-17T18:31:09.520Z,9.80
2022-11-17T18:33:38.085Z,9.73
2022-11-17T18:36:05.163Z,10.50
2022-11-17T18:41:14.206Z,10.90
2022-11-17T18:43:40.922Z,10.60
2022-11-17T18:46:10.136Z,10.70
2022-11-17T18:48:40.277Z,10.13
2022-11-17T18:51:22.524Z,9.87
2022-11-17T18:53:49.616Z,8.90
2022-11-17T18:56:21.070Z,9.50
2022-11-17T18:58:50.224Z,10.27
2022-11-17T19:01:17.860Z,10.80
2022-11-17T19:03:49.264Z,9.50
2022-11-17T19:06:18.365Z,10.30
2022-11-17T19:08:45.319Z,9.17
2022-11-17T19:11:12.279Z,9.43
2022-11-17T19:13:39.229Z,8.83
2022-11-17T19:16:08.734Z,7.13
2022-11-17T19:18:38.543Z,6.97
2022-11-17T19:21:08.039Z,7.10
2022-11-17T19:23:50.754Z,8.47
2022-11-17T19:26:27.602Z,8.37
2022-11-17T19:29:01.173Z,8.40
2022-11-17T19:31:28.347Z,8.33
2022-11-17T19:33:55.174Z,8.50
2022-11-17T19:36:24.852Z,9.63
2022-11-17T19:38:52.019Z,6.83
2022-11-17T19:41:19.569Z,7.07
2022-11-17T19:43:46.275Z,6.50
2022-11-17T19:46:13.523Z,5.73
2022-11-17T19:48:40.213Z,6.57
2022-11-17T19:51:20.575Z,6.57
2022-11-17T19:53:47.826Z,6.27
2022-11-17T19:56:14.458Z,5.90
2022-11-17T19:58:41.618Z,6.63
2022-11-17T20:01:28.121Z,6.07
2022-11-17T20:03:55.314Z,5.67
2022-11-17T20:06:22.785Z,6.73
2022-11-17T20:08:49.410Z,6.00
2022-11-17T20:11:19.620Z,5.80
2022-11-17T20:13:46.169Z,7.17
2022-11-17T20:16:16.957Z,6.90
2022-11-17T20:18:43.865Z,7.03
2022-11-17T20:21:10.834Z,7.33
2022-11-17T20:23:37.712Z,7.20
2022-11-17T20:26:04.908Z,7.93
2022-11-17T20:28:32.058Z,7.40
2022-11-17T20:30:58.719Z,6.23
2022-11-17T20:33:25.305Z,6.70
2022-11-17T20:35:51.859Z,7.23
2022-11-17T20:38:18.475Z,6.87
2022-11-17T20:40:45.048Z,7.60
2022-11-17T20:43:11.628Z,7.47
2022-11-17T20:45:38.159Z,7.50
2022-11-17T20:48:04.852Z,6.97
2022-11-17T20:50:32.142Z,7.90
2022-11-17T20:52:58.895Z,8.20
2022-11-17T20:55:25.563Z,9.07
2022-11-17T20:57:52.152Z,8.47
2022-11-17T21:00:18.858Z,9.73
2022-11-17T21:02:45.575Z,9.43
2022-11-17T21:05:12.874Z,10.63
2022-11-17T21:07:39.447Z,9.37
2022-11-17T21:10:06.909Z,9.83
2022-11-17T21:12:33.982Z,8.80
2022-11-17T21:15:00.566Z,9.27
2022-11-17T21:17:46.371Z,9.60
2022-11-17T21:20:13.046Z,9.93
2022-11-17T21:22:42.620Z,9.23
2022-11-17T21:25:09.499Z,8.97
2022-11-17T21:27:36.105Z,8.13
2022-11-17T21:30:02.711Z,9.30
2022-11-17T21:32:29.788Z,9.43
2022-11-17T21:34:57.500Z,9.67
2022-11-17T21:37:24.549Z,8.30
2022-11-17T21:39:52.304Z,8.37
2022-11-17T21:42:19.311Z,8.20
2022-11-17T21:44:50.111Z,8.57
2022-11-17T21:47:16.828Z,7.77
2022-11-17T21:49:43.622Z,6.80
2022-11-17T21:52:10.769Z,6.97
2022-11-17T21:54:39.594Z,7.37
2022-11-17T21:57:06.412Z,7.13
2022-11-17T21:59:34.588Z,7.13
2022-11-17T22:02:01.270Z,5.97
2022-11-17T22:04:30.605Z,6.93
2022-11-17T22:07:00.306Z,6.60
2022-11-17T22:09:27.161Z,7.47
2022-11-17T22:11:55.818Z,7.43
2022-11-17T22:14:25.729Z,8.00
2022-11-17T22:16:52.686Z,8.00
2022-11-17T22:19:20.293Z,6.40
2022-11-17T22:21:50.843Z,6.97
2022-11-17T22:24:17.491Z,6.53
2022-11-17T22:26:44.362Z,6.63
2022-11-17T22:29:15.186Z,6.37
2022-11-17T22:31:42.169Z,6.93
2022-11-17T22:34:09.021Z,6.57
2022-11-17T22:36:35.700Z,6.93
2022-11-17T22:39:02.279Z,6.37
2022-11-17T22:41:28.989Z,7.10
2022-11-17T22:43:56.045Z,7.53
2022-11-17T22:46:23.985Z,8.13
2022-11-17T22:48:50.693Z,7.43
2022-11-17T22:51:36.971Z,7.77
2022-11-17T22:54:03.872Z,7.70
2022-11-17T22:56:30.450Z,7.33
2022-11-17T22:58:59.817Z,8.07
2022-11-17T23:01:27.932Z,8.03
2022-11-17T23:03:54.688Z,8.33
2022-11-17T23:06:22.916Z,8.00
2022-11-17T23:08:49.679Z,8.53
2022-11-17T23:11:36.168Z,9.00
2022-11-17T23:14:06.319Z,8.47
2022-11-17T23:16:33.385Z,9.33
2022-11-17T23:18:59.970Z,8.50
2022-11-17T23:21:26.599Z,10.17
2022-11-17T23:23:53.243Z,9.20
2022-11-17T23:26:19.905Z,9.57
2022-11-17T23:28:46.570Z,9.70
2022-11-17T23:31:13.804Z,8.93
2022-11-17T23:33:41.899Z,9.27
2022-11-17T23:36:15.173Z,9.50
2022-11-17T23:38:41.906Z,10.07
2022-11-17T23:41:10.297Z,9.03
2022-11-17T23:43:37.101Z,10.33
2022-11-17T23:46:04.597Z,9.77
2022-11-17T23:48:31.184Z,10.23
2022-11-17T23:50:57.912Z,10.10
2022-11-17T23:53:24.632Z,10.57
2022-11-17T23:55:57.519Z,9.90
2022-11-17T23:58:24.211Z,9.47
